sensor_id;sensor_type;location;lat;lon;timestamp;temperature;humidity
14192;DHT22;7177;48.572;7.838;2022-12-18T00:00:46;-5.20;99.90
14192;DHT22;7177;48.572;7.838;2022-12-18T00:03:13;-5.20;99.90
14192;DHT22;7177;48.572;7.838;2022-12-18T00:05:46;-5.10;99.90
14192;DHT22;7177;48.572;7.838;2022-12-18T00:08:12;-5.20;99.90
14192;DHT22;7177;48.572;7.838;2022-12-18T00:10:38;-5.10;99.90
14192;DHT22;7177;48.572;7.838;2022-12-18T00:13:04;-5.20;99.90
14192;DHT22;7177;48.572;7.838;2022-12-18T00:15:29;-5.20;99.90
14192;DHT22;7177;48.572;7.838;2022-12-18T00:17:55;-5.10;99.90
14192;DHT22;7177;48.572;7.838;2022-12-18T00:20:20;-5.10;99.90
14192;DHT22;7177;48.572;7.838;2022-12-18T00:22:54;-5.10;99.90
14192;DHT22;7177;48.572;7.838;2022-12-18T00:25:20;-5.10;99.90
14192;DHT22;7177;48.572;7.838;2022-12-18T00:27:45;-5.20;99.90
14192;DHT22;7177;48.572;7.838;2022-12-18T00:30:11;-5.20;99.90
14192;DHT22;7177;48.572;7.838;2022-12-18T00:32:37;-5.10;99.90
14192;DHT22;7177;48.572;7.838;2022-12-18T00:35:03;-5.10;99.90
14192;DHT22;7177;48.572;7.838;2022-12-18T00:37:29;-5.30;99.90
14192;DHT22;7177;48.572;7.838;2022-12-18T00:39:54;-5.20;99.90
14192;DHT22;7177;48.572;7.838;2022-12-18T00:42:20;-5.30;99.90
14192;DHT22;7177;48.572;7.838;2022-12-18T00:45:05;-5.30;99.90
14192;DHT22;7177;48.572;7.838;2022-12-18T00:47:30;-5.30;99.90
14192;DHT22;7177;48.572;7.838;2022-12-18T00:49:56;-5.30;99.90
14192;DHT22;7177;48.572;7.838;2022-12-18T00:52:21;-5.40;99.90
14192;DHT22;7177;48.572;7.838;2022-12-18T00:54:47;-5.50;99.90
14192;DHT22;7177;48.572;7.838;2022-12-18T00:57:12;-5.50;99.90
14192;DHT22;7177;48.572;7.838;2022-12-18T00:59:38;-5.50;99.90
14192;DHT22;7177;48.572;7.838;2022-12-18T01:02:03;-5.50;99.90
14192;DHT22;7177;48.572;7.838;2022-12-18T01:04:31;-5.50;99.90
14192;DHT22;7177;48.572;7.838;2022-12-18T01:06:57;-5.50;99.90
14192;DHT22;7177;48.572;7.838;2022-12-18T01:09:22;-5.50;99.90
14192;DHT22;7177;48.572;7.838;2022-12-18T01:11:48;-5.40;99.90
14192;DHT22;7177;48.572;7.838;2022-12-18T01:14:13;-5.30;99.90
14192;DHT22;7177;48.572;7.838;2022-12-18T01:16:39;-5.50;99.90
14192;DHT22;7177;48.572;7.838;2022-12-18T01:19:05;-5.50;99.90
14192;DHT22;7177;48.572;7.838;2022-12-18T01:21:30;-5.50;99.90
14192;DHT22;7177;48.572;7.838;2022-12-18T01:23:56;-5.40;99.90
14192;DHT22;7177;48.572;7.838;2022-12-18T01:26:22;-5.40;99.90
14192;DHT22;7177;48.572;7.838;2022-12-18T01:28:48;-5.40;99.90
14192;DHT22;7177;48.572;7.838;2022-12-18T01:31:20;-5.50;99.90
14192;DHT22;7177;48.572;7.838;2022-12-18T01:33:47;-5.50;99.90
14192;DHT22;7177;48.572;7.838;2022-12-18T01:36:18;-5.50;99.90
14192;DHT22;7177;48.572;7.838;2022-12-18T01:38:44;-5.40;99.90
14192;DHT22;7177;48.572;7.838;2022-12-18T01:41:10;-5.40;99.90
14192;DHT22;7177;48.572;7.838;2022-12-18T01:43:51;-5.40;99.90
14192;DHT22;7177;48.572;7.838;2022-12-18T01:46:18;-5.40;99.90
14192;DHT22;7177;48.572;7.838;2022-12-18T01:48:47;-5.10;99.90
14192;DHT22;7177;48.572;7.838;2022-12-18T01:51:13;-5.50;99.90
14192;DHT22;7177;48.572;7.838;2022-12-18T01:53:41;-5.40;99.90
14192;DHT22;7177;48.572;7.838;2022-12-18T01:56:07;-5.40;99.90
14192;DHT22;7177;48.572;7.838;2022-12-18T01:58:42;-5.30;99.90
14192;DHT22;7177;48.572;7.838;2022-12-18T02:01:09;-5.30;99.90
14192;DHT22;7177;48.572;7.838;2022-12-18T02:03:34;-5.30;99.90
14192;DHT22;7177;48.572;7.838;2022-12-18T02:08:34;-5.30;99.90
14192;DHT22;7177;48.572;7.838;2022-12-18T02:11:12;-5.20;99.90
14192;DHT22;7177;48.572;7.838;2022-12-18T02:16:44;-5.10;99.90
14192;DHT22;7177;48.572;7.838;2022-12-18T02:24:53;-5.10;99.90
14192;DHT22;7177;48.572;7.838;2022-12-18T02:27:19;-5.00;99.90
14192;DHT22;7177;48.572;7.838;2022-12-18T02:29:51;-5.00;99.90
14192;DHT22;7177;48.572;7.838;2022-12-18T02:32:40;-5.00;99.90
14192;DHT22;7177;48.572;7.838;2022-12-18T02:35:11;-5.00;99.90
14192;DHT22;7177;48.572;7.838;2022-12-18T02:37:39;-5.00;99.90
14192;DHT22;7177;48.572;7.838;2022-12-18T02:40:08;-4.90;99.90
14192;DHT22;7177;48.572;7.838;2022-12-18T02:42:33;-4.90;99.90
14192;DHT22;7177;48.572;7.838;2022-12-18T02:44:59;-5.00;99.90
14192;DHT22;7177;48.572;7.838;2022-12-18T02:47:30;-5.20;99.90
14192;DHT22;7177;48.572;7.838;2022-12-18T02:50:28;-5.20;99.90
14192;DHT22;7177;48.572;7.838;2022-12-18T02:53:25;-5.30;99.90
14192;DHT22;7177;48.572;7.838;2022-12-18T02:56:03;-5.30;99.90
14192;DHT22;7177;48.572;7.838;2022-12-18T03:01:19;-5.20;99.90
14192;DHT22;7177;48.572;7.838;2022-12-18T03:04:01;-5.40;99.90
14192;DHT22;7177;48.572;7.838;2022-12-18T03:06:40;-4.50;99.90
14192;DHT22;7177;48.572;7.838;2022-12-18T03:09:14;-5.40;99.90
14192;DHT22;7177;48.572;7.838;2022-12-18T03:11:41;-5.40;99.90
14192;DHT22;7177;48.572;7.838;2022-12-18T03:14:30;-5.30;99.90
14192;DHT22;7177;48.572;7.838;2022-12-18T03:17:00;-5.20;99.90
14192;DHT22;7177;48.572;7.838;2022-12-18T03:19:29;-5.30;99.90
14192;DHT22;7177;48.572;7.838;2022-12-18T03:21:57;-5.30;99.90
14192;DHT22;7177;48.572;7.838;2022-12-18T03:24:24;-5.20;99.90
14192;DHT22;7177;48.572;7.838;2022-12-18T03:26:54;-5.20;99.90
14192;DHT22;7177;48.572;7.838;2022-12-18T03:29:25;-5.20;99.90
14192;DHT22;7177;48.572;7.838;2022-12-18T03:32:01;-5.10;99.90
14192;DHT22;7177;48.572;7.838;2022-12-18T03:34:30;-5.20;99.90
14192;DHT22;7177;48.572;7.838;2022-12-18T03:36:56;-5.20;99.90
14192;DHT22;7177;48.572;7.838;2022-12-18T03:39:21;-5.20;99.90
14192;DHT22;7177;48.572;7.838;2022-12-18T03:41:55;-5.30;99.90
14192;DHT22;7177;48.572;7.838;2022-12-18T03:44:29;-5.20;99.90
14192;DHT22;7177;48.572;7.838;2022-12-18T03:52:55;-5.30;99.90
14192;DHT22;7177;48.572;7.838;2022-12-18T03:55:23;-5.20;99.90
14192;DHT22;7177;48.572;7.838;2022-12-18T03:57:52;-5.20;99.90
14192;DHT22;7177;48.572;7.838;2022-12-18T04:00:18;-5.20;99.90
14192;DHT22;7177;48.572;7.838;2022-12-18T04:02:52;-5.20;99.90
14192;DHT22;7177;48.572;7.838;2022-12-18T04:05:19;-5.20;99.90
14192;DHT22;7177;48.572;7.838;2022-12-18T04:07:47;-5.20;99.90
14192;DHT22;7177;48.572;7.838;2022-12-18T04:10:15;-5.20;99.90
14192;DHT22;7177;48.572;7.838;2022-12-18T04:12:41;-5.20;99.90
14192;DHT22;7177;48.572;7.838;2022-12-18T04:15:08;-5.20;99.90
14192;DHT22;7177;48.572;7.838;2022-12-18T04:17:34;-5.20;99.90
14192;DHT22;7177;48.572;7.838;2022-12-18T04:20:00;-5.30;99.90
14192;DHT22;7177;48.572;7.838;2022-12-18T04:22:25;-5.20;99.90
14192;DHT22;7177;48.572;7.838;2022-12-18T04:24:51;-5.30;99.90
14192;DHT22;7177;48.572;7.838;2022-12-18T04:27:16;-5.20;99.90
14192;DHT22;7177;48.572;7.838;2022-12-18T04:29:42;-5.30;99.90
14192;DHT22;7177;48.572;7.838;2022-12-18T04:32:08;-5.30;99.90
14192;DHT22;7177;48.572;7.838;2022-12-18T04:34:33;-5.40;99.90
14192;DHT22;7177;48.572;7.838;2022-12-18T04:36:59;-5.40;99.90
14192;DHT22;7177;48.572;7.838;2022-12-18T04:39:24;-5.40;99.90
14192;DHT22;7177;48.572;7.838;2022-12-18T04:41:50;-5.40;99.90
14192;DHT22;7177;48.572;7.838;2022-12-18T04:44:15;-5.40;99.90
14192;DHT22;7177;48.572;7.838;2022-12-18T04:46:41;-5.40;99.90
14192;DHT22;7177;48.572;7.838;2022-12-18T04:49:07;-5.40;99.90
14192;DHT22;7177;48.572;7.838;2022-12-18T04:51:32;-5.40;99.90
14192;DHT22;7177;48.572;7.838;2022-12-18T04:53:58;-5.30;99.90
14192;DHT22;7177;48.572;7.838;2022-12-18T04:56:23;-5.50;99.90
14192;DHT22;7177;48.572;7.838;2022-12-18T04:58:49;-5.50;99.90
14192;DHT22;7177;48.572;7.838;2022-12-18T05:01:16;-5.50;99.90
14192;DHT22;7177;48.572;7.838;2022-12-18T05:03:42;-5.50;99.90
14192;DHT22;7177;48.572;7.838;2022-12-18T05:06:09;-5.40;99.90
14192;DHT22;7177;48.572;7.838;2022-12-18T05:08:34;-5.50;99.90
14192;DHT22;7177;48.572;7.838;2022-12-18T05:11:02;-5.50;99.90
14192;DHT22;7177;48.572;7.838;2022-12-18T05:13:28;-5.50;99.90
14192;DHT22;7177;48.572;7.838;2022-12-18T05:15:54;-5.50;99.90
14192;DHT22;7177;48.572;7.838;2022-12-18T05:18:20;-5.40;99.90
14192;DHT22;7177;48.572;7.838;2022-12-18T05:20:46;-5.50;99.90
14192;DHT22;7177;48.572;7.838;2022-12-18T05:23:12;-5.40;99.90
14192;DHT22;7177;48.572;7.838;2022-12-18T05:25:38;-5.40;99.90
14192;DHT22;7177;48.572;7.838;2022-12-18T05:28:03;-5.50;99.90
14192;DHT22;7177;48.572;7.838;2022-12-18T05:30:29;-5.60;99.90
14192;DHT22;7177;48.572;7.838;2022-12-18T05:32:55;-5.60;99.90
14192;DHT22;7177;48.572;7.838;2022-12-18T05:35:20;-5.70;99.90
14192;DHT22;7177;48.572;7.838;2022-12-18T05:37:46;-5.70;99.90
14192;DHT22;7177;48.572;7.838;2022-12-18T05:40:11;-5.80;99.90
14192;DHT22;7177;48.572;7.838;2022-12-18T05:42:37;-5.90;99.90
14192;DHT22;7177;48.572;7.838;2022-12-18T05:45:04;-5.90;99.90
14192;DHT22;7177;48.572;7.838;2022-12-18T05:47:29;-5.90;99.90
14192;DHT22;7177;48.572;7.838;2022-12-18T05:49:55;-5.90;99.90
14192;DHT22;7177;48.572;7.838;2022-12-18T05:52:20;-5.90;99.90
14192;DHT22;7177;48.572;7.838;2022-12-18T05:54:46;-6.00;99.90
14192;DHT22;7177;48.572;7.838;2022-12-18T05:57:12;-6.00;99.90
14192;DHT22;7177;48.572;7.838;2022-12-18T05:59:37;-6.00;99.90
14192;DHT22;7177;48.572;7.838;2022-12-18T06:02:03;-6.10;99.90
14192;DHT22;7177;48.572;7.838;2022-12-18T06:04:30;-6.20;99.90
14192;DHT22;7177;48.572;7.838;2022-12-18T06:06:55;-6.30;99.90
14192;DHT22;7177;48.572;7.838;2022-12-18T06:09:21;-6.30;99.90
14192;DHT22;7177;48.572;7.838;2022-12-18T06:11:46;-6.30;99.90
14192;DHT22;7177;48.572;7.838;2022-12-18T06:14:12;-6.40;99.90
14192;DHT22;7177;48.572;7.838;2022-12-18T06:16:37;-6.30;99.90
14192;DHT22;7177;48.572;7.838;2022-12-18T06:19:05;-6.40;99.90
14192;DHT22;7177;48.572;7.838;2022-12-18T06:21:31;-6.30;99.90
14192;DHT22;7177;48.572;7.838;2022-12-18T06:23:57;-6.30;99.90
14192;DHT22;7177;48.572;7.838;2022-12-18T06:26:23;-6.30;99.90
14192;DHT22;7177;48.572;7.838;2022-12-18T06:28:49;-6.30;99.90
14192;DHT22;7177;48.572;7.838;2022-12-18T06:31:14;-6.40;99.90
14192;DHT22;7177;48.572;7.838;2022-12-18T06:33:40;-6.40;99.90
14192;DHT22;7177;48.572;7.838;2022-12-18T06:36:11;-6.40;99.90
14192;DHT22;7177;48.572;7.838;2022-12-18T06:38:39;-6.40;99.90
14192;DHT22;7177;48.572;7.838;2022-12-18T06:41:10;-6.40;99.90
14192;DHT22;7177;48.572;7.838;2022-12-18T06:43:35;-5.60;99.90
14192;DHT22;7177;48.572;7.838;2022-12-18T06:46:02;-4.70;99.90
14192;DHT22;7177;48.572;7.838;2022-12-18T06:48:28;-4.30;99.90
14192;DHT22;7177;48.572;7.838;2022-12-18T06:50:54;-4.60;99.90
14192;DHT22;7177;48.572;7.838;2022-12-18T06:53:20;-5.00;99.90
14192;DHT22;7177;48.572;7.838;2022-12-18T06:55:45;-5.40;99.90
14192;DHT22;7177;48.572;7.838;2022-12-18T06:58:11;-5.70;99.90
14192;DHT22;7177;48.572;7.838;2022-12-18T07:00:36;-6.00;99.90
14192;DHT22;7177;48.572;7.838;2022-12-18T07:03:02;-6.20;99.90
14192;DHT22;7177;48.572;7.838;2022-12-18T07:05:27;-6.20;99.90
14192;DHT22;7177;48.572;7.838;2022-12-18T07:07:53;-6.30;99.90
14192;DHT22;7177;48.572;7.838;2022-12-18T07:10:18;-6.40;99.90
14192;DHT22;7177;48.572;7.838;2022-12-18T07:12:44;-6.50;99.90
14192;DHT22;7177;48.572;7.838;2022-12-18T07:15:10;-6.40;99.90
14192;DHT22;7177;48.572;7.838;2022-12-18T07:17:36;-6.30;99.90
14192;DHT22;7177;48.572;7.838;2022-12-18T07:20:01;-6.40;99.90
14192;DHT22;7177;48.572;7.838;2022-12-18T07:22:27;-6.40;99.90
14192;DHT22;7177;48.572;7.838;2022-12-18T07:24:53;-6.40;99.90
14192;DHT22;7177;48.572;7.838;2022-12-18T07:27:18;-6.30;99.90
14192;DHT22;7177;48.572;7.838;2022-12-18T07:29:44;-6.30;99.90
14192;DHT22;7177;48.572;7.838;2022-12-18T07:32:09;-6.30;99.90
14192;DHT22;7177;48.572;7.838;2022-12-18T07:34:35;-6.40;99.90
14192;DHT22;7177;48.572;7.838;2022-12-18T07:37:00;-6.40;99.90
14192;DHT22;7177;48.572;7.838;2022-12-18T07:39:26;-6.40;99.90
14192;DHT22;7177;48.572;7.838;2022-12-18T07:41:52;-6.40;99.90
14192;DHT22;7177;48.572;7.838;2022-12-18T07:44:36;-6.40;99.90
14192;DHT22;7177;48.572;7.838;2022-12-18T07:47:02;-6.40;99.90
14192;DHT22;7177;48.572;7.838;2022-12-18T07:49:28;-6.50;99.90
14192;DHT22;7177;48.572;7.838;2022-12-18T07:51:55;-6.50;99.90
14192;DHT22;7177;48.572;7.838;2022-12-18T07:54:22;-6.50;99.90
14192;DHT22;7177;48.572;7.838;2022-12-18T07:56:48;-6.40;99.90
14192;DHT22;7177;48.572;7.838;2022-12-18T07:59:13;-6.40;99.90
14192;DHT22;7177;48.572;7.838;2022-12-18T08:01:39;-6.40;99.90
14192;DHT22;7177;48.572;7.838;2022-12-18T08:04:04;-6.50;99.90
14192;DHT22;7177;48.572;7.838;2022-12-18T08:06:30;-6.50;99.90
14192;DHT22;7177;48.572;7.838;2022-12-18T08:08:56;-6.50;99.90
14192;DHT22;7177;48.572;7.838;2022-12-18T08:11:23;-6.50;99.90
14192;DHT22;7177;48.572;7.838;2022-12-18T08:13:49;-6.50;99.90
14192;DHT22;7177;48.572;7.838;2022-12-18T08:16:14;-6.50;99.90
14192;DHT22;7177;48.572;7.838;2022-12-18T08:18:40;-6.50;99.90
14192;DHT22;7177;48.572;7.838;2022-12-18T08:21:16;-6.50;99.90
14192;DHT22;7177;48.572;7.838;2022-12-18T08:23:42;-6.60;99.90
14192;DHT22;7177;48.572;7.838;2022-12-18T08:26:08;-6.60;99.90
14192;DHT22;7177;48.572;7.838;2022-12-18T08:28:34;-6.60;99.90
14192;DHT22;7177;48.572;7.838;2022-12-18T08:31:00;-6.60;99.90
14192;DHT22;7177;48.572;7.838;2022-12-18T08:33:26;-6.50;99.90
14192;DHT22;7177;48.572;7.838;2022-12-18T08:35:52;-6.40;99.90
14192;DHT22;7177;48.572;7.838;2022-12-18T08:38:18;-6.40;99.90
14192;DHT22;7177;48.572;7.838;2022-12-18T08:40:44;-6.40;99.90
14192;DHT22;7177;48.572;7.838;2022-12-18T08:43:10;-6.40;99.90
14192;DHT22;7177;48.572;7.838;2022-12-18T08:45:54;-6.10;99.90
14192;DHT22;7177;48.572;7.838;2022-12-18T08:48:20;-5.50;99.90
14192;DHT22;7177;48.572;7.838;2022-12-18T08:50:59;-5.60;99.90
14192;DHT22;7177;48.572;7.838;2022-12-18T08:53:25;-5.80;99.90
14192;DHT22;7177;48.572;7.838;2022-12-18T08:55:51;-5.60;99.90
14192;DHT22;7177;48.572;7.838;2022-12-18T08:58:17;-5.80;99.90
14192;DHT22;7177;48.572;7.838;2022-12-18T09:00:42;-6.00;99.90
14192;DHT22;7177;48.572;7.838;2022-12-18T09:03:12;-6.10;99.90
14192;DHT22;7177;48.572;7.838;2022-12-18T09:05:38;-6.20;99.90
14192;DHT22;7177;48.572;7.838;2022-12-18T09:08:04;-6.30;99.90
14192;DHT22;7177;48.572;7.838;2022-12-18T09:10:29;-6.30;99.90
14192;DHT22;7177;48.572;7.838;2022-12-18T09:12:55;-6.20;99.90
14192;DHT22;7177;48.572;7.838;2022-12-18T09:15:21;-6.30;99.90
14192;DHT22;7177;48.572;7.838;2022-12-18T09:17:47;-6.20;99.90
14192;DHT22;7177;48.572;7.838;2022-12-18T09:20:13;-6.10;99.90
14192;DHT22;7177;48.572;7.838;2022-12-18T09:22:39;-6.20;99.90
14192;DHT22;7177;48.572;7.838;2022-12-18T09:25:04;-6.20;99.90
14192;DHT22;7177;48.572;7.838;2022-12-18T09:27:33;-6.10;99.90
14192;DHT22;7177;48.572;7.838;2022-12-18T09:29:58;-6.10;99.90
14192;DHT22;7177;48.572;7.838;2022-12-18T09:32:24;-6.20;99.90
14192;DHT22;7177;48.572;7.838;2022-12-18T09:34:49;-6.30;99.90
14192;DHT22;7177;48.572;7.838;2022-12-18T09:37:15;-6.30;99.90
14192;DHT22;7177;48.572;7.838;2022-12-18T09:39:40;-6.30;99.90
14192;DHT22;7177;48.572;7.838;2022-12-18T09:42:16;-6.20;99.90
14192;DHT22;7177;48.572;7.838;2022-12-18T09:44:45;-6.10;99.90
14192;DHT22;7177;48.572;7.838;2022-12-18T09:47:34;-6.10;99.90
14192;DHT22;7177;48.572;7.838;2022-12-18T09:52:45;-5.80;99.90
14192;DHT22;7177;48.572;7.838;2022-12-18T09:55:32;-5.70;99.90
14192;DHT22;7177;48.572;7.838;2022-12-18T10:00:47;-5.70;99.90
14192;DHT22;7177;48.572;7.838;2022-12-18T10:03:15;-5.60;99.90
14192;DHT22;7177;48.572;7.838;2022-12-18T10:06:06;-5.50;99.90
14192;DHT22;7177;48.572;7.838;2022-12-18T10:08:44;-5.50;99.90
14192;DHT22;7177;48.572;7.838;2022-12-18T10:11:53;-5.60;99.90
14192;DHT22;7177;48.572;7.838;2022-12-18T10:20:05;-5.60;99.90
14192;DHT22;7177;48.572;7.838;2022-12-18T10:25:30;-5.50;99.90
14192;DHT22;7177;48.572;7.838;2022-12-18T10:28:12;-5.40;99.90
14192;DHT22;7177;48.572;7.838;2022-12-18T10:30:39;-5.50;99.90
14192;DHT22;7177;48.572;7.838;2022-12-18T10:33:05;-5.60;99.90
14192;DHT22;7177;48.572;7.838;2022-12-18T10:35:30;-5.50;99.90
14192;DHT22;7177;48.572;7.838;2022-12-18T10:40:35;-5.40;99.90
14192;DHT22;7177;48.572;7.838;2022-12-18T10:43:13;-5.30;99.90
14192;DHT22;7177;48.572;7.838;2022-12-18T10:45:40;-5.20;99.90
14192;DHT22;7177;48.572;7.838;2022-12-18T10:48:21;-5.20;99.90
14192;DHT22;7177;48.572;7.838;2022-12-18T10:50:49;-5.10;99.90
14192;DHT22;7177;48.572;7.838;2022-12-18T10:53:27;-5.00;99.90
14192;DHT22;7177;48.572;7.838;2022-12-18T10:55:55;-4.90;99.90
14192;DHT22;7177;48.572;7.838;2022-12-18T10:58:34;-4.80;99.90
14192;DHT22;7177;48.572;7.838;2022-12-18T11:06:21;-4.60;99.90
14192;DHT22;7177;48.572;7.838;2022-12-18T11:09:20;-4.50;99.90
14192;DHT22;7177;48.572;7.838;2022-12-18T11:11:54;-4.50;99.90
14192;DHT22;7177;48.572;7.838;2022-12-18T11:14:32;-4.30;99.90
14192;DHT22;7177;48.572;7.838;2022-12-18T11:16:59;-4.20;99.90
14192;DHT22;7177;48.572;7.838;2022-12-18T11:19:36;-4.20;99.90
14192;DHT22;7177;48.572;7.838;2022-12-18T11:22:20;-4.30;99.90
14192;DHT22;7177;48.572;7.838;2022-12-18T11:24:59;-4.20;99.90
14192;DHT22;7177;48.572;7.838;2022-12-18T11:27:25;-4.30;99.90
14192;DHT22;7177;48.572;7.838;2022-12-18T11:29:51;-4.20;99.90
14192;DHT22;7177;48.572;7.838;2022-12-18T11:35:17;-4.20;99.90
14192;DHT22;7177;48.572;7.838;2022-12-18T11:38:07;-4.20;99.90
14192;DHT22;7177;48.572;7.838;2022-12-18T11:40:37;-4.10;99.90
14192;DHT22;7177;48.572;7.838;2022-12-18T11:43:22;-4.10;99.90
14192;DHT22;7177;48.572;7.838;2022-12-18T11:48:45;-4.10;99.90
14192;DHT22;7177;48.572;7.838;2022-12-18T11:51:24;-4.00;99.90
14192;DHT22;7177;48.572;7.838;2022-12-18T11:53:51;-4.20;99.90
14192;DHT22;7177;48.572;7.838;2022-12-18T11:56:29;-4.20;99.90
14192;DHT22;7177;48.572;7.838;2022-12-18T12:04:18;-4.30;99.90
14192;DHT22;7177;48.572;7.838;2022-12-18T12:15:30;-4.30;99.90
14192;DHT22;7177;48.572;7.838;2022-12-18T12:18:30;-4.30;99.90
14192;DHT22;7177;48.572;7.838;2022-12-18T12:21:14;-4.20;99.90
14192;DHT22;7177;48.572;7.838;2022-12-18T12:29:29;-3.80;99.90
14192;DHT22;7177;48.572;7.838;2022-12-18T12:32:22;-3.70;99.90
14192;DHT22;7177;48.572;7.838;2022-12-18T12:38:27;-3.70;99.90
14192;DHT22;7177;48.572;7.838;2022-12-18T12:41:05;-3.60;99.90
14192;DHT22;7177;48.572;7.838;2022-12-18T12:43:52;-3.60;99.90
14192;DHT22;7177;48.572;7.838;2022-12-18T12:46:19;-3.70;99.90
14192;DHT22;7177;48.572;7.838;2022-12-18T12:48:51;-3.70;99.90
14192;DHT22;7177;48.572;7.838;2022-12-18T12:53:48;-3.70;99.90
14192;DHT22;7177;48.572;7.838;2022-12-18T12:56:16;-3.70;99.90
14192;DHT22;7177;48.572;7.838;2022-12-18T13:02:03;-3.60;99.90
14192;DHT22;7177;48.572;7.838;2022-12-18T13:04:39;-3.70;99.90
14192;DHT22;7177;48.572;7.838;2022-12-18T13:07:15;-3.80;99.90
14192;DHT22;7177;48.572;7.838;2022-12-18T13:12:59;-3.80;99.90
14192;DHT22;7177;48.572;7.838;2022-12-18T13:15:37;-3.80;99.90
14192;DHT22;7177;48.572;7.838;2022-12-18T13:20:44;-3.80;99.90
14192;DHT22;7177;48.572;7.838;2022-12-18T13:31:05;-3.60;99.90
14192;DHT22;7177;48.572;7.838;2022-12-18T13:33:41;-3.70;99.90
14192;DHT22;7177;48.572;7.838;2022-12-18T13:38:47;-3.80;99.90
14192;DHT22;7177;48.572;7.838;2022-12-18T13:41:32;-3.70;99.90
14192;DHT22;7177;48.572;7.838;2022-12-18T13:44:23;-3.80;99.90
14192;DHT22;7177;48.572;7.838;2022-12-18T13:46:50;-3.80;99.90
14192;DHT22;7177;48.572;7.838;2022-12-18T13:49:37;-4.00;99.90
14192;DHT22;7177;48.572;7.838;2022-12-18T13:52:21;-4.10;99.90
14192;DHT22;7177;48.572;7.838;2022-12-18T13:54:53;-4.10;99.90
14192;DHT22;7177;48.572;7.838;2022-12-18T13:57:29;-4.00;99.90
14192;DHT22;7177;48.572;7.838;2022-12-18T13:59:56;-4.00;99.90
14192;DHT22;7177;48.572;7.838;2022-12-18T14:02:27;-3.90;99.90
14192;DHT22;7177;48.572;7.838;2022-12-18T14:04:53;-4.10;99.90
14192;DHT22;7177;48.572;7.838;2022-12-18T14:07:24;-4.10;99.90
14192;DHT22;7177;48.572;7.838;2022-12-18T14:09:53;-4.10;99.90
14192;DHT22;7177;48.572;7.838;2022-12-18T14:12:26;-4.00;99.90
14192;DHT22;7177;48.572;7.838;2022-12-18T14:20:55;-4.00;99.90
14192;DHT22;7177;48.572;7.838;2022-12-18T14:23:32;-4.00;99.90
14192;DHT22;7177;48.572;7.838;2022-12-18T14:25:59;-3.90;99.90
14192;DHT22;7177;48.572;7.838;2022-12-18T14:28:25;-4.00;99.90
14192;DHT22;7177;48.572;7.838;2022-12-18T14:30:52;-4.00;99.90
14192;DHT22;7177;48.572;7.838;2022-12-18T14:33:20;-4.00;99.90
14192;DHT22;7177;48.572;7.838;2022-12-18T14:35:54;-4.10;99.90
14192;DHT22;7177;48.572;7.838;2022-12-18T14:38:27;-4.10;99.90
14192;DHT22;7177;48.572;7.838;2022-12-18T14:41:04;-4.20;99.90
14192;DHT22;7177;48.572;7.838;2022-12-18T14:43:35;-4.30;99.90
14192;DHT22;7177;48.572;7.838;2022-12-18T14:46:03;-4.40;99.90
14192;DHT22;7177;48.572;7.838;2022-12-18T14:48:36;-4.50;99.90
14192;DHT22;7177;48.572;7.838;2022-12-18T14:51:18;-4.60;99.90
14192;DHT22;7177;48.572;7.838;2022-12-18T14:53:47;-4.50;99.90
14192;DHT22;7177;48.572;7.838;2022-12-18T14:56:27;-4.50;99.90
14192;DHT22;7177;48.572;7.838;2022-12-18T14:58:55;-4.40;99.90
14192;DHT22;7177;48.572;7.838;2022-12-18T15:01:35;-4.50;99.90
14192;DHT22;7177;48.572;7.838;2022-12-18T15:04:03;-4.30;99.90
14192;DHT22;7177;48.572;7.838;2022-12-18T15:06:32;-4.50;99.90
14192;DHT22;7177;48.572;7.838;2022-12-18T15:09:00;-4.50;99.90
14192;DHT22;7177;48.572;7.838;2022-12-18T15:14:43;-4.60;99.90
14192;DHT22;7177;48.572;7.838;2022-12-18T15:17:18;-4.60;99.90
14192;DHT22;7177;48.572;7.838;2022-12-18T15:19:44;-4.70;99.90
14192;DHT22;7177;48.572;7.838;2022-12-18T15:22:24;-4.70;99.90
14192;DHT22;7177;48.572;7.838;2022-12-18T15:24:50;-4.70;99.90
14192;DHT22;7177;48.572;7.838;2022-12-18T15:27:33;-4.70;99.90
14192;DHT22;7177;48.572;7.838;2022-12-18T15:32:26;-4.60;99.90
14192;DHT22;7177;48.572;7.838;2022-12-18T15:37:33;-4.70;99.90
14192;DHT22;7177;48.572;7.838;2022-12-18T15:39:58;-4.70;99.90
14192;DHT22;7177;48.572;7.838;2022-12-18T15:42:24;-4.70;99.90
14192;DHT22;7177;48.572;7.838;2022-12-18T15:45:11;-4.70;99.90
14192;DHT22;7177;48.572;7.838;2022-12-18T15:47:37;-4.70;99.90
14192;DHT22;7177;48.572;7.838;2022-12-18T15:50:03;-4.80;99.90
14192;DHT22;7177;48.572;7.838;2022-12-18T15:52:28;-4.70;99.90
14192;DHT22;7177;48.572;7.838;2022-12-18T15:54:54;-4.70;99.90
14192;DHT22;7177;48.572;7.838;2022-12-18T15:57:38;-4.70;99.90
14192;DHT22;7177;48.572;7.838;2022-12-18T16:00:04;-4.60;99.90
14192;DHT22;7177;48.572;7.838;2022-12-18T16:02:29;-4.50;99.90
14192;DHT22;7177;48.572;7.838;2022-12-18T16:04:57;-4.50;99.90
14192;DHT22;7177;48.572;7.838;2022-12-18T16:07:22;-4.40;99.90
14192;DHT22;7177;48.572;7.838;2022-12-18T16:09:48;-4.50;99.90
14192;DHT22;7177;48.572;7.838;2022-12-18T16:12:19;-4.40;99.90
14192;DHT22;7177;48.572;7.838;2022-12-18T16:14:46;-4.40;99.90
14192;DHT22;7177;48.572;7.838;2022-12-18T16:17:13;-4.50;99.90
14192;DHT22;7177;48.572;7.838;2022-12-18T16:19:39;-4.60;99.90
14192;DHT22;7177;48.572;7.838;2022-12-18T16:22:04;-4.60;99.90
14192;DHT22;7177;48.572;7.838;2022-12-18T16:24:33;-4.70;99.90
14192;DHT22;7177;48.572;7.838;2022-12-18T16:27:00;-4.60;99.90
14192;DHT22;7177;48.572;7.838;2022-12-18T16:29:27;-4.60;99.90
14192;DHT22;7177;48.572;7.838;2022-12-18T16:31:54;-4.60;99.90
14192;DHT22;7177;48.572;7.838;2022-12-18T16:36:52;-4.60;99.90
14192;DHT22;7177;48.572;7.838;2022-12-18T16:39:19;-4.50;99.90
14192;DHT22;7177;48.572;7.838;2022-12-18T16:41:45;-4.50;99.90
14192;DHT22;7177;48.572;7.838;2022-12-18T16:44:11;-4.50;99.90
14192;DHT22;7177;48.572;7.838;2022-12-18T16:46:37;-4.40;99.90
14192;DHT22;7177;48.572;7.838;2022-12-18T16:49:03;-4.50;99.90
14192;DHT22;7177;48.572;7.838;2022-12-18T16:51:28;-4.50;99.90
14192;DHT22;7177;48.572;7.838;2022-12-18T16:53:55;-4.50;99.90
14192;DHT22;7177;48.572;7.838;2022-12-18T16:56:21;-4.60;99.90
14192;DHT22;7177;48.572;7.838;2022-12-18T16:58:51;-4.60;99.90
14192;DHT22;7177;48.572;7.838;2022-12-18T17:01:17;-4.50;99.90
14192;DHT22;7177;48.572;7.838;2022-12-18T17:03:42;-4.50;99.90
14192;DHT22;7177;48.572;7.838;2022-12-18T17:06:08;-4.40;99.90
14192;DHT22;7177;48.572;7.838;2022-12-18T17:08:33;-4.50;99.90
14192;DHT22;7177;48.572;7.838;2022-12-18T17:11:08;-4.60;99.90
14192;DHT22;7177;48.572;7.838;2022-12-18T17:13:33;-4.60;99.90
14192;DHT22;7177;48.572;7.838;2022-12-18T17:16:06;-4.50;99.90
14192;DHT22;7177;48.572;7.838;2022-12-18T17:18:32;-4.60;99.90
14192;DHT22;7177;48.572;7.838;2022-12-18T17:21:00;-4.60;99.90
14192;DHT22;7177;48.572;7.838;2022-12-18T17:23:26;-4.60;99.90
14192;DHT22;7177;48.572;7.838;2022-12-18T17:25:56;-4.60;99.90
14192;DHT22;7177;48.572;7.838;2022-12-18T17:28:26;-4.50;99.90
14192;DHT22;7177;48.572;7.838;2022-12-18T17:30:52;-4.50;99.90
14192;DHT22;7177;48.572;7.838;2022-12-18T17:33:18;-4.40;99.90
14192;DHT22;7177;48.572;7.838;2022-12-18T17:35:44;-4.40;99.90
14192;DHT22;7177;48.572;7.838;2022-12-18T17:38:10;-4.30;99.90
14192;DHT22;7177;48.572;7.838;2022-12-18T17:40:36;-4.20;99.90
14192;DHT22;7177;48.572;7.838;2022-12-18T17:43:01;-4.20;99.90
14192;DHT22;7177;48.572;7.838;2022-12-18T17:45:27;-4.20;99.90
14192;DHT22;7177;48.572;7.838;2022-12-18T17:47:52;-4.30;99.90